首页
METAR-TAF:

METAR-TAF

机场 :

蓬塔阿雷纳斯, 智利

纬度: 53-00S, 经度: 070-51W, 海拔: 37米

当前天气观测

该预报发布于23分钟前的21:00 UTC
风速22节,风向西转西北,有时为33节阵风
温度 2°C
湿度 87%
气压 990 hPa
能见度10公里或以上
少量云层高于1400英尺
多云层高于1800英尺
多云层高于13000英尺
小阵雨

METAR: SCCI 182100Z 29022G33KT 9999 -SHRA FEW014 BKN018 BKN130 02/00 Q0990 NOSIG

时间: 17:23 (21:23 UTC)

预报

该预报发布于4小时和27分钟前的16:56 UTC
预报有效从18日的 18点(UTC)到 19日的 18点(UTC)
风速25节,风向西转西北,有时为35节阵风
能见度10公里或以上
散云层高于3500英尺
成为
从 18日的 18点(UTC)到 18日的 20点(UTC)
风速20节,风向西,有时为30节阵风
能見度: 9000
散云层高于2500英尺
多云层高于4000英尺
小阵雨
几率 30% :
短暂存在
从 18日的 19点(UTC)到 19日的 00点(UTC)
能見度: 1500
多云层高于1200英尺, 积雨云.
雷暴, 冰雹, 阵雨, 雪
短暂存在
从 19日的 01点(UTC)到 19日的 05点(UTC)
能見度: 3000
多云层高于1000英尺
阵雨, 雪, 小阵雪
短暂存在
从 19日的 14点(UTC)到 19日的 18点(UTC)
风速33节,风向西转西北,有时为45节阵风
成为
从 19日的 16点(UTC)到 19日的 18点(UTC)
能见度10公里或以上
散云层高于3700英尺

TAF: SCCI 181656Z 1818/1918 30025G35KT 9999 SCT035 TNM01/1906Z TX07/1918Z BECMG 1818/1820 28020G30KT 9000 -SHRA SCT025 BKN040 PROB30 TEMPO 1819/1900 1500 TSGR SHRASN BKN012CB TEMPO 1901/1905 3000 SHRASN -SHSN BKN010 TEMPO 1914/1918 30033G45KT BECMG 1916/1918 9999 NSW SCT037

超过4000个机场的气象观测和天气预报(METAR&TAF报告)。

可查询的气象台以黄色和红色小点在地图上表示。

将鼠标移到小点上方,可查看气象台名称。

然后点击查看天气观测和预报。

如需切换地图:点击带黑十字的绿色按钮放大地图;点击带横线的绿色按钮缩小地图;或者点击绿色箭头查看邻近地区的地图。


METAR-TAF: